Time;durP1;ratioP1;P1;durP2;ratioP2;P2;SDS_P1;SDS_P2;PMS_P1;PMS_P2;Temp;Humidity;BMP_temperature;BMP_pressure;BME280_temperature;BME280_humidity;BME280_pressure;Samples;Min_cycle;Max_cycle;Signal;HPM_P1;HPM_P2
2023/02/15 00:01:50;;;;;;;8.15;5.82;;;;;;;;;;5013239;28;20215;-44
2023/02/15 00:04:17;;;;;;;9.13;6.50;;;;;;;;;;5010324;28;20188;-44
2023/02/15 00:06:43;;;;;;;9.45;7.05;;;;;;;;;;5010076;28;20220;-44
2023/02/15 00:09:10;;;;;;;8.88;6.70;;;;;;;;;;5012480;28;20232;-45
2023/02/15 00:11:39;;;;;;;9.60;6.78;;;;;;;;;;5009216;28;20275;-45
2023/02/15 00:14:06;;;;;;;9.18;6.90;;;;;;;;;;5007710;28;20228;-45
2023/02/15 00:16:31;;;;;;;8.38;6.32;;;;;;;;;;5013947;28;20230;-44
2023/02/15 00:19:01;;;;;;;8.55;6.30;;;;;;;;;;5017008;28;20188;-44
2023/02/15 00:21:27;;;;;;;9.60;6.70;;;;;;;;;;5008940;28;20189;-45
2023/02/15 00:23:53;;;;;;;9.05;6.45;;;;;;;;;;5003339;28;20258;-44
2023/02/15 00:26:19;;;;;;;9.10;6.50;;;;;;;;;;5010455;28;20234;-44
2023/02/15 00:28:44;;;;;;;7.93;5.88;;;;;;;;;;5015651;28;20207;-44
2023/02/15 00:31:11;;;;;;;8.82;6.75;;;;;;;;;;5015840;28;20591;-44
2023/02/15 00:33:38;;;;;;;8.13;6.15;;;;;;;;;;5015704;28;20184;-44
2023/02/15 00:36:05;;;;;;;8.45;5.90;;;;;;;;;;5015116;28;20473;-44
2023/02/15 00:38:31;;;;;;;8.27;5.75;;;;;;;;;;5016397;28;20259;-44
2023/02/15 00:40:58;;;;;;;7.85;5.75;;;;;;;;;;5011831;28;20180;-45
2023/02/15 00:43:24;;;;;;;7.88;5.70;;;;;;;;;;5016288;28;20246;-44
2023/02/15 00:45:50;;;;;;;7.70;6.10;;;;;;;;;;5004911;28;20224;-48
2023/02/15 00:48:16;;;;;;;8.30;6.00;;;;;;;;;;5012877;28;20462;-44
2023/02/15 00:50:42;;;;;;;8.32;6.32;;;;;;;;;;5013902;28;20196;-45
2023/02/15 00:53:08;;;;;;;7.07;5.38;;;;;;;;;;5014229;28;20177;-44
2023/02/15 00:55:34;;;;;;;8.18;6.28;;;;;;;;;;5014224;28;20552;-44
2023/02/15 00:58:00;;;;;;;7.93;6.20;;;;;;;;;;5013503;28;20226;-44
2023/02/15 01:00:26;;;;;;;7.18;5.45;;;;;;;;;;5011058;28;20189;-45
2023/02/15 01:02:51;;;;;;;7.68;5.68;;;;;;;;;;5010154;28;20592;-45
2023/02/15 01:05:17;;;;;;;6.22;5.53;;;;;;;;;;5012226;28;20438;-44
2023/02/15 01:07:43;;;;;;;7.55;5.95;;;;;;;;;;5010108;28;20180;-44
2023/02/15 01:10:09;;;;;;;6.35;5.50;;;;;;;;;;5009200;28;20511;-44
2023/02/15 01:12:35;;;;;;;6.55;5.70;;;;;;;;;;5011764;28;20180;-44
2023/02/15 01:15:01;;;;;;;7.68;5.70;;;;;;;;;;5012974;28;20211;-44
2023/02/15 01:17:27;;;;;;;5.82;5.03;;;;;;;;;;5010399;28;20195;-44
2023/02/15 01:19:53;;;;;;;5.97;5.32;;;;;;;;;;5013136;28;20196;-44
2023/02/15 01:22:19;;;;;;;8.25;5.57;;;;;;;;;;5010703;28;20188;-44
2023/02/15 01:24:45;;;;;;;7.15;6.13;;;;;;;;;;5010649;28;20219;-44
2023/02/15 01:27:11;;;;;;;6.15;4.90;;;;;;;;;;5008950;28;20224;-44
2023/02/15 01:29:37;;;;;;;6.53;5.38;;;;;;;;;;5011961;28;20184;-44
2023/02/15 01:32:03;;;;;;;5.82;5.10;;;;;;;;;;5013641;28;20243;-44
2023/02/15 01:34:29;;;;;;;6.75;5.28;;;;;;;;;;5013510;28;20234;-44
2023/02/15 01:36:55;;;;;;;6.38;5.22;;;;;;;;;;5004609;28;20215;-44
2023/02/15 01:39:21;;;;;;;7.18;5.22;;;;;;;;;;5007914;28;20208;-44
2023/02/15 01:41:47;;;;;;;5.35;4.63;;;;;;;;;;5011358;28;20497;-44
2023/02/15 01:44:32;;;;;;;6.55;5.30;;;;;;;;;;5011147;28;20189;-44
2023/02/15 01:46:58;;;;;;;5.55;4.97;;;;;;;;;;5010373;28;20260;-44
2023/02/15 01:49:25;;;;;;;5.28;4.25;;;;;;;;;;5011425;28;20275;-44
2023/02/15 01:51:52;;;;;;;6.43;5.03;;;;;;;;;;5012256;28;20247;-44
2023/02/15 01:54:24;;;;;;;6.53;5.10;;;;;;;;;;5008410;28;20203;-44
2023/02/15 01:56:50;;;;;;;6.30;4.75;;;;;;;;;;5008068;28;20199;-44
2023/02/15 01:59:19;;;;;;;5.30;4.70;;;;;;;;;;5011829;28;20548;-44
2023/02/15 02:01:46;;;;;;;5.57;4.80;;;;;;;;;;5016937;28;20180;-44
2023/02/15 02:04:12;;;;;;;7.10;5.10;;;;;;;;;;5015734;28;20250;-45
2023/02/15 02:06:39;;;;;;;5.25;4.43;;;;;;;;;;5009061;28;20188;-44
2023/02/15 02:09:05;;;;;;;4.82;4.28;;;;;;;;;;5015132;28;20629;-44
2023/02/15 02:11:31;;;;;;;5.55;4.72;;;;;;;;;;5013131;28;20220;-44
2023/02/15 02:13:57;;;;;;;5.75;4.60;;;;;;;;;;5014420;28;20182;-44
2023/02/15 02:16:29;;;;;;;6.10;4.60;;;;;;;;;;5018442;28;20185;-44
2023/02/15 02:19:01;;;;;;;5.45;4.90;;;;;;;;;;5019297;28;20183;-45
2023/02/15 02:21:37;;;;;;;5.00;4.40;;;;;;;;;;5011623;28;20294;-45
2023/02/15 02:24:17;;;;;;;5.93;4.95;;;;;;;;;;5019356;28;20580;-44
2023/02/15 02:26:49;;;;;;;6.20;4.80;;;;;;;;;;5013796;28;20464;-44
2023/02/15 02:29:24;;;;;;;5.32;4.65;;;;;;;;;;5018068;28;20184;-45
2023/02/15 02:32:09;;;;;;;6.45;4.55;;;;;;;;;;5018216;28;20479;-44
2023/02/15 02:34:50;;;;;;;5.20;4.45;;;;;;;;;;5015747;28;20548;-44
2023/02/15 02:37:25;;;;;;;5.72;4.60;;;;;;;;;;5020800;28;20177;-45
2023/02/15 02:40:07;;;;;;;5.20;4.38;;;;;;;;;;5011086;28;20183;-44
2023/02/15 02:42:41;;;;;;;5.80;4.55;;;;;;;;;;5019814;28;20523;-45
2023/02/15 02:45:14;;;;;;;5.63;4.47;;;;;;;;;;5016872;28;20212;-44
2023/02/15 02:47:44;;;;;;;4.65;4.13;;;;;;;;;;5021109;28;20172;-44
2023/02/15 02:50:13;;;;;;;5.22;4.03;;;;;;;;;;5015455;28;20188;-44
2023/02/15 02:52:39;;;;;;;5.65;4.00;;;;;;;;;;5017502;28;20187;-44
2023/02/15 02:55:12;;;;;;;5.03;4.50;;;;;;;;;;5017530;28;20180;-44
2023/02/15 02:57:39;;;;;;;6.22;4.38;;;;;;;;;;5020251;28;20181;-44
2023/02/15 03:00:08;;;;;;;4.88;4.28;;;;;;;;;;5017774;28;20181;-44
2023/02/15 03:02:37;;;;;;;4.63;4.00;;;;;;;;;;5018895;28;20192;-44
2023/02/15 03:05:06;;;;;;;4.47;3.85;;;;;;;;;;5016715;28;20215;-44
2023/02/15 03:07:35;;;;;;;4.65;4.22;;;;;;;;;;5011250;28;20207;-44
2023/02/15 03:10:02;;;;;;;4.95;4.10;;;;;;;;;;5010826;28;20467;-44
2023/02/15 03:12:31;;;;;;;4.22;3.58;;;;;;;;;;5012043;28;20548;-44
2023/02/15 03:15:17;;;;;;;4.93;4.00;;;;;;;;;;5010282;28;20188;-44
2023/02/15 03:17:44;;;;;;;4.22;3.78;;;;;;;;;;5008096;28;20567;-44
2023/02/15 03:20:14;;;;;;;3.67;3.38;;;;;;;;;;5010632;28;20192;-44
2023/02/15 03:22:46;;;;;;;4.32;3.92;;;;;;;;;;5013458;28;20189;-45
2023/02/15 03:25:17;;;;;;;5.05;4.40;;;;;;;;;;5017177;28;20503;-45
2023/02/15 03:27:45;;;;;;;4.63;3.97;;;;;;;;;;5009352;28;20196;-44
2023/02/15 03:30:13;;;;;;;4.13;3.67;;;;;;;;;;5011997;28;20188;-44
2023/02/15 03:32:39;;;;;;;4.15;3.75;;;;;;;;;;5008938;28;20197;-44
2023/02/15 03:35:06;;;;;;;5.53;4.15;;;;;;;;;;5012843;28;20483;-45
2023/02/15 03:37:38;;;;;;;4.68;4.07;;;;;;;;;;5014096;28;20272;-44
2023/02/15 03:43:27;;;;;;;4.30;3.90;;;;;;;;;;5012395;28;20342;-44
2023/02/15 03:45:57;;;;;;;4.25;3.60;;;;;;;;;;5006157;28;20626;-44
2023/02/15 03:48:25;;;;;;;4.63;3.80;;;;;;;;;;5007541;28;20264;-44
2023/02/15 03:53:38;;;;;;;3.83;3.50;;;;;;;;;;5013321;28;20220;-44
2023/02/15 03:56:04;;;;;;;4.10;3.70;;;;;;;;;;5014359;28;20195;-44
2023/02/15 04:04:09;;;;;;;4.93;4.13;;;;;;;;;;5004684;28;20571;-44
2023/02/15 04:06:35;;;;;;;3.80;3.50;;;;;;;;;;5010838;28;20196;-44
2023/02/15 04:11:45;;;;;;;4.13;3.63;;;;;;;;;;5012472;28;20578;-44
2023/02/15 04:16:56;;;;;;;4.40;3.65;;;;;;;;;;5010097;28;20262;-44
2023/02/15 04:25:09;;;;;;;3.88;3.45;;;;;;;;;;5005605;28;20265;-45
2023/02/15 04:27:35;;;;;;;3.75;3.35;;;;;;;;;;5013779;28;20702;-44
2023/02/15 04:30:01;;;;;;;3.58;3.25;;;;;;;;;;5009940;28;20223;-44
2023/02/15 04:32:27;;;;;;;3.65;3.10;;;;;;;;;;5013723;28;20216;-44
2023/02/15 04:34:54;;;;;;;4.10;3.42;;;;;;;;;;5015950;28;20176;-44
2023/02/15 04:37:20;;;;;;;7.32;3.30;;;;;;;;;;5006891;28;20193;-46
2023/02/15 04:39:46;;;;;;;7.50;3.63;;;;;;;;;;5006999;28;20457;-48
2023/02/15 04:42:11;;;;;;;7.43;3.38;;;;;;;;;;5015025;28;20181;-45
2023/02/15 04:44:37;;;;;;;6.75;4.40;;;;;;;;;;5012256;28;20205;-47
2023/02/15 04:47:03;;;;;;;9.10;4.50;;;;;;;;;;5010472;28;20249;-47
2023/02/15 04:49:29;;;;;;;11.05;4.72;;;;;;;;;;5006606;28;20264;-47
2023/02/15 04:51:55;;;;;;;7.15;4.18;;;;;;;;;;5015844;28;20246;-49
2023/02/15 04:54:21;;;;;;;9.10;4.65;;;;;;;;;;5011959;28;20177;-48
2023/02/15 04:56:47;;;;;;;12.88;4.90;;;;;;;;;;5009668;28;20176;-48
2023/02/15 04:59:13;;;;;;;9.88;4.57;;;;;;;;;;5006998;28;20279;-45
2023/02/15 05:01:39;;;;;;;12.38;4.88;;;;;;;;;;5011894;28;20191;-50
2023/02/15 05:04:05;;;;;;;11.68;4.38;;;;;;;;;;5011215;28;20475;-49
2023/02/15 05:06:31;;;;;;;6.43;4.43;;;;;;;;;;5008634;28;20189;-45
2023/02/15 05:08:59;;;;;;;7.60;4.13;;;;;;;;;;5009534;28;20309;-45
2023/02/15 05:11:25;;;;;;;8.70;4.30;;;;;;;;;;5007459;28;20204;-51
2023/02/15 05:13:51;;;;;;;10.75;4.15;;;;;;;;;;5005765;28;20572;-48
2023/02/15 05:16:17;;;;;;;7.78;3.75;;;;;;;;;;5009802;28;20223;-49
2023/02/15 05:18:43;;;;;;;7.75;4.43;;;;;;;;;;5013474;28;20199;-50
2023/02/15 05:21:09;;;;;;;4.72;3.72;;;;;;;;;;5014809;28;20188;-48
2023/02/15 05:23:35;;;;;;;7.10;4.22;;;;;;;;;;5011117;28;20188;-48
2023/02/15 05:28:45;;;;;;;9.15;4.55;;;;;;;;;;5013689;28;20295;-49
2023/02/15 05:31:15;;;;;;;5.53;3.70;;;;;;;;;;5013021;28;20287;-48
2023/02/15 05:33:41;;;;;;;8.60;4.00;;;;;;;;;;5012299;28;20180;-51
2023/02/15 05:36:08;;;;;;;5.38;3.90;;;;;;;;;;5013075;28;20264;-48
2023/02/15 05:38:36;;;;;;;5.88;3.88;;;;;;;;;;5013864;28;20796;-51
2023/02/15 05:41:02;;;;;;;6.38;3.78;;;;;;;;;;5008613;28;20230;-49
2023/02/15 05:43:29;;;;;;;4.28;3.30;;;;;;;;;;5013770;28;20465;-49
2023/02/15 05:45:55;;;;;;;8.45;3.45;;;;;;;;;;5011557;28;20188;-48
2023/02/15 05:48:22;;;;;;;6.35;3.55;;;;;;;;;;5011099;28;20211;-52
2023/02/15 05:50:57;;;;;;;7.13;4.13;;;;;;;;;;5014572;28;20204;-47
2023/02/15 05:53:23;;;;;;;6.72;3.53;;;;;;;;;;5009076;28;20189;-50
2023/02/15 05:55:49;;;;;;;5.45;3.63;;;;;;;;;;5014566;28;20188;-47
2023/02/15 05:58:15;;;;;;;4.32;3.63;;;;;;;;;;5010496;28;20188;-45
2023/02/15 06:00:40;;;;;;;5.32;3.35;;;;;;;;;;5007114;28;20189;-57
2023/02/15 06:03:06;;;;;;;7.25;3.58;;;;;;;;;;5010604;28;20184;-50
2023/02/15 06:05:32;;;;;;;9.00;3.90;;;;;;;;;;5002338;28;20472;-50
2023/02/15 06:07:58;;;;;;;10.52;5.05;;;;;;;;;;5009707;28;20249;-50
2023/02/15 06:10:24;;;;;;;13.75;5.90;;;;;;;;;;5004491;28;20196;-49
2023/02/15 06:12:50;;;;;;;9.77;5.07;;;;;;;;;;5013474;28;20255;-50
2023/02/15 06:15:16;;;;;;;9.73;4.88;;;;;;;;;;5013468;28;20169;-49
2023/02/15 06:17:42;;;;;;;7.43;4.90;;;;;;;;;;5010882;28;20189;-48
2023/02/15 06:20:08;;;;;;;10.18;4.20;;;;;;;;;;5005474;28;20196;-49
2023/02/15 06:22:35;;;;;;;10.05;4.50;;;;;;;;;;5014488;28;20239;-51
2023/02/15 06:25:01;;;;;;;8.88;4.85;;;;;;;;;;5006685;28;20183;-47
2023/02/15 06:27:27;;;;;;;5.60;4.35;;;;;;;;;;5011428;28;20607;-49
2023/02/15 06:29:52;;;;;;;8.00;4.35;;;;;;;;;;5013667;28;20213;-50
2023/02/15 06:32:18;;;;;;;7.22;4.32;;;;;;;;;;5013813;28;20250;-49
2023/02/15 06:34:44;;;;;;;5.00;3.97;;;;;;;;;;5013960;28;20266;-49
2023/02/15 06:37:10;;;;;;;5.75;4.20;;;;;;;;;;5013181;28;20204;-49
2023/02/15 06:39:36;;;;;;;6.50;4.35;;;;;;;;;;5013354;28;20191;-49
2023/02/15 06:42:02;;;;;;;8.90;4.18;;;;;;;;;;5013656;28;20551;-49
2023/02/15 06:44:28;;;;;;;4.68;3.95;;;;;;;;;;5003728;28;20203;-50
2023/02/15 06:46:54;;;;;;;6.65;4.32;;;;;;;;;;5014520;28;20241;-49
2023/02/15 06:49:20;;;;;;;6.70;4.43;;;;;;;;;;5017695;28;20192;-49
2023/02/15 06:51:46;;;;;;;7.88;4.05;;;;;;;;;;5017693;28;20307;-48
2023/02/15 06:54:12;;;;;;;7.00;4.28;;;;;;;;;;5011054;28;20177;-45
2023/02/15 06:56:38;;;;;;;12.00;4.72;;;;;;;;;;5014232;28;20185;-46
2023/02/15 06:59:04;;;;;;;11.60;4.80;;;;;;;;;;5012837;28;20177;-46
2023/02/15 07:01:30;;;;;;;10.82;4.75;;;;;;;;;;5012699;28;20574;-46
2023/02/15 07:03:56;;;;;;;10.02;5.05;;;;;;;;;;5012408;28;20191;-46
2023/02/15 07:06:22;;;;;;;11.57;5.03;;;;;;;;;;5009368;28;20432;-46
2023/02/15 07:08:48;;;;;;;14.05;4.70;;;;;;;;;;5017010;28;20411;-47
2023/02/15 07:13:58;;;;;;;13.18;4.75;;;;;;;;;;5002149;28;20199;-49
2023/02/15 07:16:24;;;;;;;12.02;4.47;;;;;;;;;;5006091;28;20180;-47
2023/02/15 07:18:50;;;;;;;15.45;5.30;;;;;;;;;;5013510;28;20199;-46
2023/02/15 07:21:16;;;;;;;14.40;5.15;;;;;;;;;;5011273;28;20219;-46
2023/02/15 07:23:42;;;;;;;11.65;4.57;;;;;;;;;;5014741;28;20188;-46
2023/02/15 07:26:08;;;;;;;18.40;5.63;;;;;;;;;;5013202;28;20176;-46
2023/02/15 07:28:35;;;;;;;14.27;5.03;;;;;;;;;;5010978;28;20271;-47
2023/02/15 07:31:04;;;;;;;12.70;4.90;;;;;;;;;;5015664;28;20472;-46
2023/02/15 07:33:31;;;;;;;11.98;4.90;;;;;;;;;;5015908;28;20191;-46
2023/02/15 07:35:58;;;;;;;14.25;4.85;;;;;;;;;;5004903;28;20446;-46
2023/02/15 07:38:25;;;;;;;12.48;4.70;;;;;;;;;;5013500;28;20213;-46
2023/02/15 07:40:51;;;;;;;12.27;4.93;;;;;;;;;;5015562;28;20267;-46
2023/02/15 07:43:17;;;;;;;10.38;4.90;;;;;;;;;;5012203;28;20264;-46
2023/02/15 07:45:43;;;;;;;11.13;4.30;;;;;;;;;;5005816;28;20184;-46
2023/02/15 07:48:09;;;;;;;11.70;5.10;;;;;;;;;;5009523;28;20234;-47
2023/02/15 07:50:35;;;;;;;11.43;5.28;;;;;;;;;;5015940;28;20180;-47
2023/02/15 07:53:02;;;;;;;9.65;4.05;;;;;;;;;;5003379;28;20203;-46
2023/02/15 07:55:27;;;;;;;9.95;4.40;;;;;;;;;;5007690;28;20291;-46
2023/02/15 07:57:53;;;;;;;9.10;4.35;;;;;;;;;;5014735;28;20316;-46
2023/02/15 08:00:24;;;;;;;7.75;4.07;;;;;;;;;;5007512;28;20184;-47
2023/02/15 08:03:12;;;;;;;10.95;4.50;;;;;;;;;;5005474;28;20201;-47
2023/02/15 08:05:36;;;;;;;9.82;3.80;;;;;;;;;;4999804;28;20650;-47
2023/02/15 08:08:02;;;;;;;8.23;4.05;;;;;;;;;;5009149;28;20218;-47
2023/02/15 08:13:13;;;;;;;8.63;4.28;;;;;;;;;;5007746;28;20191;-47
2023/02/15 08:15:39;;;;;;;7.25;4.10;;;;;;;;;;5008158;28;20188;-47
2023/02/15 08:18:05;;;;;;;6.40;4.45;;;;;;;;;;4999307;28;20181;-46
2023/02/15 08:20:31;;;;;;;9.30;4.38;;;;;;;;;;5006973;28;20195;-46
2023/02/15 08:22:57;;;;;;;7.20;4.38;;;;;;;;;;5015708;28;20206;-47
2023/02/15 08:25:23;;;;;;;7.60;4.32;;;;;;;;;;5009040;28;20191;-47
2023/02/15 08:27:49;;;;;;;5.85;4.10;;;;;;;;;;5002271;28;20215;-47
2023/02/15 08:30:15;;;;;;;9.32;4.22;;;;;;;;;;5007187;28;20231;-47
2023/02/15 08:32:41;;;;;;;9.18;3.78;;;;;;;;;;4998458;28;20452;-47
2023/02/15 08:35:08;;;;;;;6.82;4.13;;;;;;;;;;5003702;28;20193;-47
2023/02/15 08:37:34;;;;;;;6.18;4.45;;;;;;;;;;5003303;28;20200;-47
2023/02/15 08:40:00;;;;;;;7.93;4.10;;;;;;;;;;5015890;28;20187;-47
2023/02/15 08:42:25;;;;;;;5.50;3.95;;;;;;;;;;5015331;28;20184;-47
2023/02/15 08:44:51;;;;;;;6.30;3.88;;;;;;;;;;5011079;28;20200;-47
2023/02/15 08:47:17;;;;;;;5.20;3.95;;;;;;;;;;5010012;28;20571;-47
2023/02/15 08:49:43;;;;;;;4.63;3.75;;;;;;;;;;5015500;28;20275;-47
2023/02/15 08:52:09;;;;;;;6.35;3.90;;;;;;;;;;5006229;28;20845;-46
2023/02/15 08:54:35;;;;;;;7.25;4.00;;;;;;;;;;5006181;28;20181;-46
2023/02/15 08:57:01;;;;;;;6.88;3.58;;;;;;;;;;5011770;28;20181;-46
2023/02/15 08:59:27;;;;;;;4.30;3.72;;;;;;;;;;5011195;28;20561;-47
2023/02/15 09:01:53;;;;;;;4.32;3.65;;;;;;;;;;5014042;28;20457;-47
2023/02/15 09:04:19;;;;;;;6.57;3.72;;;;;;;;;;5007834;28;20674;-46
2023/02/15 09:06:46;;;;;;;5.47;3.72;;;;;;;;;;5001686;28;20197;-46
2023/02/15 09:09:12;;;;;;;5.10;3.83;;;;;;;;;;5011092;28;20717;-46
2023/02/15 09:11:40;;;;;;;6.28;3.65;;;;;;;;;;5015282;28;20258;-46
2023/02/15 09:14:13;;;;;;;6.43;4.00;;;;;;;;;;5009022;28;20185;-46
2023/02/15 09:16:40;;;;;;;4.07;3.45;;;;;;;;;;5000188;28;20192;-46
2023/02/15 09:19:06;;;;;;;4.72;3.47;;;;;;;;;;5008429;28;20173;-46
2023/02/15 09:21:33;;;;;;;6.40;3.97;;;;;;;;;;5008143;28;20458;-47
2023/02/15 09:24:00;;;;;;;5.85;3.90;;;;;;;;;;5013875;28;20189;-47
2023/02/15 09:26:26;;;;;;;5.60;3.67;;;;;;;;;;5014624;28;20241;-47
2023/02/15 09:28:55;;;;;;;4.85;3.28;;;;;;;;;;5005758;28;20260;-47
2023/02/15 09:31:22;;;;;;;4.75;3.40;;;;;;;;;;5015337;28;20400;-47
2023/02/15 09:33:48;;;;;;;3.25;2.92;;;;;;;;;;5013952;28;20191;-47
2023/02/15 09:36:16;;;;;;;4.05;3.28;;;;;;;;;;5005226;28;20193;-47
2023/02/15 09:38:41;;;;;;;3.90;3.17;;;;;;;;;;5012130;28;20240;-47
2023/02/15 09:41:34;;;;;;;4.43;3.28;;;;;;;;;;5014609;28;20215;-47
2023/02/15 09:44:15;;;;;;;3.85;3.13;;;;;;;;;;5013685;28;20470;-46
2023/02/15 09:46:41;;;;;;;4.70;3.47;;;;;;;;;;5012540;28;20180;-46
2023/02/15 09:49:22;;;;;;;6.70;3.20;;;;;;;;;;5012936;28;20201;-46
2023/02/15 09:51:58;;;;;;;5.28;3.60;;;;;;;;;;5011271;28;20208;-46
2023/02/15 09:54:24;;;;;;;4.50;3.10;;;;;;;;;;5012794;28;20176;-46
2023/02/15 09:56:53;;;;;;;3.33;2.60;;;;;;;;;;5013910;28;20184;-46
2023/02/15 09:59:31;;;;;;;4.22;3.20;;;;;;;;;;5014493;28;20177;-46
2023/02/15 10:02:05;;;;;;;4.20;2.65;;;;;;;;;;5009922;28;20450;-47
2023/02/15 10:04:49;;;;;;;3.13;2.75;;;;;;;;;;5003493;28;20231;-46
2023/02/15 10:07:19;;;;;;;4.55;2.92;;;;;;;;;;5005978;28;20196;-46
2023/02/15 10:09:59;;;;;;;5.47;3.00;;;;;;;;;;5011964;28;20180;-46
2023/02/15 10:12:24;;;;;;;4.38;2.92;;;;;;;;;;5009658;28;20267;-47
2023/02/15 10:15:11;;;;;;;2.70;2.30;;;;;;;;;;4999882;28;20469;-46
2023/02/15 10:18:01;;;;;;;3.70;3.03;;;;;;;;;;5003530;28;20183;-47
2023/02/15 10:20:33;;;;;;;2.80;2.60;;;;;;;;;;5010465;28;20199;-47
2023/02/15 10:23:12;;;;;;;4.05;2.75;;;;;;;;;;5009813;28;20568;-47
2023/02/15 10:25:54;;;;;;;4.35;2.75;;;;;;;;;;5009373;28;20571;-47
2023/02/15 10:28:23;;;;;;;3.72;2.90;;;;;;;;;;5002361;28;20606;-50
2023/02/15 10:30:50;;;;;;;3.55;2.50;;;;;;;;;;5014310;28;20282;-49
2023/02/15 10:33:34;;;;;;;3.50;2.92;;;;;;;;;;5012022;28;20195;-48
2023/02/15 10:36:16;;;;;;;3.88;3.00;;;;;;;;;;5007473;28;20577;-49
2023/02/15 10:39:01;;;;;;;4.13;2.80;;;;;;;;;;5007005;28;20192;-49
2023/02/15 10:41:36;;;;;;;4.32;3.03;;;;;;;;;;5011672;28;20292;-48
2023/02/15 10:44:12;;;;;;;4.57;2.47;;;;;;;;;;5005108;28;20184;-48
2023/02/15 10:46:54;;;;;;;3.08;2.67;;;;;;;;;;5005983;28;20180;-49
2023/02/15 10:49:26;;;;;;;9.15;2.80;;;;;;;;;;5004882;28;20193;-48
2023/02/15 10:52:11;;;;;;;5.38;2.80;;;;;;;;;;5007987;28;20265;-51
2023/02/15 10:54:45;;;;;;;4.97;2.47;;;;;;;;;;5005199;28;20185;-50
2023/02/15 10:57:19;;;;;;;4.38;2.55;;;;;;;;;;5015006;28;20180;-50
2023/02/15 10:59:48;;;;;;;7.65;2.95;;;;;;;;;;5006197;28;20289;-49
2023/02/15 11:02:24;;;;;;;3.95;3.10;;;;;;;;;;5005215;28;20189;-53
2023/02/15 11:05:09;;;;;;;4.00;2.50;;;;;;;;;;5002069;28;20184;-53
2023/02/15 11:07:41;;;;;;;8.02;2.70;;;;;;;;;;5011146;28;20225;-51
2023/02/15 11:10:25;;;;;;;4.03;2.63;;;;;;;;;;5004653;28;20199;-53
2023/02/15 11:12:51;;;;;;;3.05;2.20;;;;;;;;;;5011263;28;20601;-56
2023/02/15 11:15:25;;;;;;;4.82;2.40;;;;;;;;;;5010345;28;20259;-57
2023/02/15 11:17:55;;;;;;;6.43;2.88;;;;;;;;;;5000774;28;20567;-57
2023/02/15 11:20:21;;;;;;;7.35;2.63;;;;;;;;;;5006710;28;20185;-57
2023/02/15 11:22:48;;;;;;;4.72;2.58;;;;;;;;;;5007026;28;20192;-58
2023/02/15 11:25:18;;;;;;;5.38;2.45;;;;;;;;;;5007045;28;20221;-57
2023/02/15 11:27:45;;;;;;;2.80;2.35;;;;;;;;;;5008985;28;20220;-57
2023/02/15 11:30:13;;;;;;;4.03;2.22;;;;;;;;;;5007469;28;20181;-57
2023/02/15 11:32:40;;;;;;;4.80;2.35;;;;;;;;;;5005249;28;20212;-57
2023/02/15 11:35:17;;;;;;;5.72;2.67;;;;;;;;;;5002376;28;20552;-57
2023/02/15 11:37:52;;;;;;;5.47;2.40;;;;;;;;;;5007314;28;20472;-58
2023/02/15 11:40:24;;;;;;;4.47;2.30;;;;;;;;;;5002628;28;20193;-57
2023/02/15 11:42:51;;;;;;;6.97;2.25;;;;;;;;;;5010851;28;20699;-59
2023/02/15 11:45:21;;;;;;;5.05;2.67;;;;;;;;;;5012517;28;20189;-57
2023/02/15 11:47:47;;;;;;;3.33;2.42;;;;;;;;;;5013144;28;20189;-58
2023/02/15 11:50:18;;;;;;;3.63;2.40;;;;;;;;;;5014637;28;20183;-59
2023/02/15 11:52:44;;;;;;;3.90;2.30;;;;;;;;;;5006216;28;20216;-58
2023/02/15 11:55:13;;;;;;;3.75;2.15;;;;;;;;;;5010801;28;20272;-59
2023/02/15 11:57:43;;;;;;;4.03;2.25;;;;;;;;;;5009482;28;20208;-58
2023/02/15 12:00:11;;;;;;;4.20;2.17;;;;;;;;;;5009217;28;20185;-59
2023/02/15 12:02:38;;;;;;;3.75;2.45;;;;;;;;;;5014274;28;20189;-59
2023/02/15 12:05:10;;;;;;;2.50;2.30;;;;;;;;;;5011889;28;20185;-59
2023/02/15 12:07:48;;;;;;;5.32;2.22;;;;;;;;;;5013389;28;20195;-59
2023/02/15 12:10:29;;;;;;;3.35;2.17;;;;;;;;;;5005726;28;20206;-59
2023/02/15 12:13:13;;;;;;;5.38;2.20;;;;;;;;;;5016018;28;20224;-58
2023/02/15 12:15:42;;;;;;;6.40;2.30;;;;;;;;;;5010913;28;20263;-58
2023/02/15 12:18:19;;;;;;;2.55;2.17;;;;;;;;;;5013660;28;20318;-58
2023/02/15 12:20:45;;;;;;;5.20;2.28;;;;;;;;;;5016564;28;20207;-58
2023/02/15 12:23:15;;;;;;;2.95;2.15;;;;;;;;;;5014972;28;20545;-58
2023/02/15 12:25:51;;;;;;;4.25;2.03;;;;;;;;;;5014156;28;20204;-58
2023/02/15 12:28:46;;;;;;;2.08;1.80;;;;;;;;;;5009612;28;20192;-58
2023/02/15 12:31:23;;;;;;;3.83;1.90;;;;;;;;;;5004454;28;20227;-58
2023/02/15 12:33:51;;;;;;;2.67;1.80;;;;;;;;;;5015153;28;20184;-58
2023/02/15 12:36:28;;;;;;;2.15;1.63;;;;;;;;;;5014352;28;20176;-59
2023/02/15 12:39:04;;;;;;;3.40;1.85;;;;;;;;;;5015657;28;20184;-58
2023/02/15 12:41:29;;;;;;;2.35;1.80;;;;;;;;;;5015791;28;20234;-59
2023/02/15 12:44:16;;;;;;;3.28;1.75;;;;;;;;;;5013834;28;20498;-59
2023/02/15 12:46:42;;;;;;;3.45;1.70;;;;;;;;;;5007934;28;20189;-58
2023/02/15 12:49:34;;;;;;;1.98;1.60;;;;;;;;;;5015310;28;20186;-58
2023/02/15 12:52:01;;;;;;;2.78;1.60;;;;;;;;;;5010252;28;20228;-59
2023/02/15 12:54:29;;;;;;;2.83;2.00;;;;;;;;;;5014335;28;20564;-59
2023/02/15 12:56:57;;;;;;;1.88;1.77;;;;;;;;;;5012983;28;20216;-58
2023/02/15 12:59:23;;;;;;;3.97;1.90;;;;;;;;;;5013847;28;20191;-58
2023/02/15 13:01:49;;;;;;;3.45;1.65;;;;;;;;;;5008755;28;20699;-58
2023/02/15 13:04:21;;;;;;;4.82;1.90;;;;;;;;;;5007444;28;20225;-58
2023/02/15 13:06:48;;;;;;;5.30;2.25;;;;;;;;;;5011526;28;20461;-58
2023/02/15 13:09:24;;;;;;;4.50;2.10;;;;;;;;;;5011542;28;20184;-58
2023/02/15 13:11:50;;;;;;;5.50;2.10;;;;;;;;;;5014046;28;20823;-58
2023/02/15 13:14:19;;;;;;;8.18;2.05;;;;;;;;;;5013831;28;20540;-58
2023/02/15 13:16:47;;;;;;;11.93;2.20;;;;;;;;;;5014157;28;20180;-58
2023/02/15 13:19:15;;;;;;;3.38;1.83;;;;;;;;;;5011134;28;20541;-58
2023/02/15 13:21:44;;;;;;;5.78;2.28;;;;;;;;;;5014278;28;20200;-58
2023/02/15 13:24:22;;;;;;;3.75;2.05;;;;;;;;;;5013797;28;20234;-58
2023/02/15 13:26:49;;;;;;;1.92;1.70;;;;;;;;;;5013561;28;20184;-50
2023/02/15 13:29:21;;;;;;;2.05;1.83;;;;;;;;;;5008287;28;20185;-50
2023/02/15 13:31:49;;;;;;;4.50;2.28;;;;;;;;;;5008767;28;20232;-50
2023/02/15 13:34:19;;;;;;;4.57;1.83;;;;;;;;;;5010529;28;20195;-50
2023/02/15 13:36:45;;;;;;;5.25;2.00;;;;;;;;;;5013500;28;20270;-50
2023/02/15 13:39:24;;;;;;;7.40;2.00;;;;;;;;;;5007100;28;20276;-50
2023/02/15 13:42:06;;;;;;;8.82;2.13;;;;;;;;;;5008763;28;20180;-51
2023/02/15 13:44:51;;;;;;;4.65;2.10;;;;;;;;;;5007811;28;20215;-50
2023/02/15 13:47:22;;;;;;;6.63;2.22;;;;;;;;;;5007698;28;20195;-49
2023/02/15 13:50:09;;;;;;;4.95;1.92;;;;;;;;;;5013998;28;20564;-50
2023/02/15 13:52:41;;;;;;;3.78;1.73;;;;;;;;;;5012372;28;20212;-51
2023/02/15 13:55:10;;;;;;;4.18;2.30;;;;;;;;;;5002233;28;20577;-51
2023/02/15 13:57:54;;;;;;;3.78;1.90;;;;;;;;;;5011896;28;20300;-51
2023/02/15 14:00:35;;;;;;;9.15;1.95;;;;;;;;;;5007921;28;20177;-51
2023/02/15 14:03:29;;;;;;;6.38;2.05;;;;;;;;;;4999902;28;20263;-50
2023/02/15 14:06:06;;;;;;;4.95;1.70;;;;;;;;;;5012277;28;20593;-50
2023/02/15 14:08:52;;;;;;;4.30;2.10;;;;;;;;;;5009633;28;20451;-51
2023/02/15 14:11:36;;;;;;;3.42;1.80;;;;;;;;;;5008731;28;20477;-51
2023/02/15 14:14:12;;;;;;;4.78;2.15;;;;;;;;;;5014709;28;20615;-50
2023/02/15 14:16:49;;;;;;;5.57;2.10;;;;;;;;;;5012528;28;20176;-50
2023/02/15 14:19:21;;;;;;;6.13;1.73;;;;;;;;;;5012603;28;20464;-51
2023/02/15 14:21:49;;;;;;;3.55;1.80;;;;;;;;;;5012270;28;20559;-50
2023/02/15 14:24:22;;;;;;;2.72;1.92;;;;;;;;;;5003120;28;20514;-51
2023/02/15 14:27:03;;;;;;;3.92;1.45;;;;;;;;;;5009488;28;20250;-51
2023/02/15 14:29:39;;;;;;;2.40;1.77;;;;;;;;;;5013974;28;20184;-50
2023/02/15 14:32:09;;;;;;;2.55;1.67;;;;;;;;;;5005769;28;20574;-50
2023/02/15 14:34:50;;;;;;;3.83;1.80;;;;;;;;;;5013708;28;20214;-51
2023/02/15 14:37:19;;;;;;;4.15;1.58;;;;;;;;;;5008264;28;20173;-51
2023/02/15 14:42:44;;;;;;;2.92;1.77;;;;;;;;;;5013933;28;20455;-50
2023/02/15 14:45:42;;;;;;;3.63;1.80;;;;;;;;;;5014033;28;20191;-50
2023/02/15 14:48:12;;;;;;;3.60;2.00;;;;;;;;;;5005018;28;20365;-51
2023/02/15 14:50:39;;;;;;;3.90;1.70;;;;;;;;;;5012943;28;20192;-50
2023/02/15 14:53:23;;;;;;;1.77;1.60;;;;;;;;;;5004926;28;20188;-50
2023/02/15 14:56:05;;;;;;;2.97;1.85;;;;;;;;;;5006110;28;20188;-51
2023/02/15 14:58:30;;;;;;;1.48;1.35;;;;;;;;;;5008095;28;20181;-50
2023/02/15 15:01:05;;;;;;;2.35;1.73;;;;;;;;;;5007410;28;20181;-50
2023/02/15 15:03:31;;;;;;;5.05;2.00;;;;;;;;;;5009405;28;20180;-50
2023/02/15 15:05:59;;;;;;;5.55;1.80;;;;;;;;;;5012812;28;20177;-51
2023/02/15 15:08:43;;;;;;;5.47;2.53;;;;;;;;;;5014335;28;20217;-50
2023/02/15 15:11:28;;;;;;;5.05;2.45;;;;;;;;;;5010588;28;20211;-50
2023/02/15 15:13:55;;;;;;;6.40;2.30;;;;;;;;;;5010778;28;20187;-50
2023/02/15 15:16:30;;;;;;;4.15;1.90;;;;;;;;;;5009773;28;20176;-51
2023/02/15 15:18:56;;;;;;;8.52;2.40;;;;;;;;;;5010793;28;20184;-50
2023/02/15 15:21:41;;;;;;;5.28;2.78;;;;;;;;;;5011497;28;20188;-51
2023/02/15 15:24:07;;;;;;;8.00;2.88;;;;;;;;;;5005987;28;20187;-50
2023/02/15 15:26:36;;;;;;;10.45;3.17;;;;;;;;;;5012944;28;20188;-50
2023/02/15 15:29:02;;;;;;;9.82;3.00;;;;;;;;;;5014373;28;20439;-50
2023/02/15 15:31:33;;;;;;;7.05;2.83;;;;;;;;;;5014855;28;20207;-51